Bitola, Macedonia
Current Conditions -  °F | °C
As of 1:00 PM on Friday 28 Nov 2014 (Local Time) from LWOH Reporting Station
Overcast Overcast  
Wind Chill: 48°   Ceiling: 3300
Heat Index: 48°   Visibility: 6mi
Dew Point: 41°   Wind: 2mph
Humidity: 76%   Direction: 210°SSW
Pressure: 30.15"   Gusts: NA
Location:  41.04°N, 21.34°E
Report Text: LWOH 281100Z 21002KT 9999 SCT020 BKN033 OVC050 09/05 Q1021
Loading
Personal Weather Stations






























Interactive Weather Map New forecast layout! Learn more

10-Day Weather Forecast

Advertisements
Track Severe Weather on mobile